CheckWX is a tool to help pilots better visualize weather data.  It is not intended as a substitute for an official pre-flight weather briefing.

08:11:41 UTC

KDET METAR
Coleman A Young Municipal Airport
Detroit, Michigan, USA
Current

19 mins ago

KDET 230753Z 15008KT 10SM SCT120 13/08 A2989 RMK AO2 SLP121 T01330078
Observed
Apr-23 @ 07:53 UTC
Wind
  • 150° at 8 KTS
Visibility
10 SM
Flight Rules
VFR
Cloud Levels
  • Scattered at 12,000' AGL
Temperature
13°C / 55°F
Dewpoint
C / 46°F
Humidity
72%
Altimeter
29.89" Hg
Pressure
1012.22 hPa
Previous

1 hour ago

KDET 230653Z 17005KT 10SM FEW110 12/07 A2995 RMK AO2 SLP142 T01220072
Observed
Apr-23 @ 06:53 UTC
Wind
  • 170° at 5 KTS
Visibility
10 SM
Flight Rules
VFR
Cloud Levels
  • Few at 11,000' AGL
Temperature
12°C / 54°F
Dewpoint
C / 45°F
Humidity
72%
Altimeter
29.95" Hg
Pressure
1014.22 hPa
Previous

2 hours ago

KDET 230553Z 15005KT 10SM CLR 11/07 A2997 RMK AO2 SLP146 T01110067 10178 20106 58025
Observed
Apr-23 @ 05:53 UTC
Wind
  • 150° at 5 KTS
Visibility
10 SM
Flight Rules
VFR
Cloud Levels
  • Clear skies
Temperature
11°C / 52°F
Dewpoint
C / 45°F
Humidity
77%
Altimeter
29.97" Hg
Pressure
1014.92 hPa